createdAt,value
2023-02-13T00:01:12.497Z,5.80
2023-02-13T00:06:33.998Z,5.90
2023-02-13T00:11:55.327Z,5.90
2023-02-13T00:17:16.703Z,5.80
2023-02-13T00:22:39.392Z,5.90
2023-02-13T00:28:00.556Z,5.90
2023-02-13T00:33:21.997Z,5.90
2023-02-13T00:38:44.400Z,5.80
2023-02-13T00:44:06.577Z,5.80
2023-02-13T00:49:28.411Z,5.80
2023-02-13T00:54:49.917Z,5.80
2023-02-13T01:00:11.959Z,5.80
2023-02-13T01:05:36.485Z,5.80
2023-02-13T01:10:58.591Z,5.80
2023-02-13T01:16:20.410Z,5.70
2023-02-13T01:21:42.889Z,5.70
2023-02-13T01:27:04.153Z,5.40
2023-02-13T01:32:26.088Z,5.40
2023-02-13T01:37:47.219Z,5.60
2023-02-13T01:43:11.998Z,5.40
2023-02-13T01:48:33.668Z,5.40
2023-02-13T01:54:16.787Z,5.50
2023-02-13T01:59:53.457Z,5.40
2023-02-13T02:05:17.146Z,5.40
2023-02-13T02:10:39.649Z,5.50
2023-02-13T02:16:00.952Z,5.40
2023-02-13T02:21:35.990Z,5.40
2023-02-13T02:27:38.649Z,5.40
2023-02-13T02:33:21.736Z,5.30
2023-02-13T02:39:09.863Z,5.30
2023-02-13T02:44:42.879Z,5.30
2023-02-13T02:50:20.389Z,5.20
2023-02-13T02:55:51.448Z,5.30
2023-02-13T03:01:36.365Z,5.20
2023-02-13T03:07:04.100Z,5.30
2023-02-13T03:12:49.020Z,5.20
2023-02-13T03:18:29.603Z,5.10
2023-02-13T03:24:10.041Z,5.10
2023-02-13T03:30:11.876Z,5.00
2023-02-13T03:36:04.618Z,5.10
2023-02-13T03:41:32.729Z,5.10
2023-02-13T03:46:58.557Z,5.10
2023-02-13T03:52:32.567Z,5.10
2023-02-13T03:58:17.050Z,5.10
2023-02-13T04:04:09.006Z,5.10
2023-02-13T04:09:32.374Z,5.10
2023-02-13T04:15:10.410Z,5.20
2023-02-13T04:20:32.975Z,5.10
2023-02-13T04:25:57.309Z,5.10
2023-02-13T04:31:18.568Z,5.10
2023-02-13T04:36:40.066Z,5.10
2023-02-13T04:42:02.696Z,5.00
2023-02-13T04:47:23.956Z,4.90
2023-02-13T04:52:45.500Z,5.00
2023-02-13T04:58:07.027Z,4.90
2023-02-13T05:03:28.565Z,5.00
2023-02-13T05:08:50.415Z,4.80
2023-02-13T05:14:12.119Z,4.90
2023-02-13T05:19:33.649Z,5.00
2023-02-13T05:24:54.940Z,5.00
2023-02-13T05:30:16.422Z,4.90
2023-02-13T05:35:37.860Z,4.90
2023-02-13T05:41:02.641Z,4.90
2023-02-13T05:46:24.340Z,4.90
2023-02-13T05:51:49.447Z,4.90
2023-02-13T05:57:10.967Z,4.90
2023-02-13T06:02:32.532Z,4.90
2023-02-13T06:07:54.006Z,4.90
2023-02-13T06:13:15.820Z,4.80
2023-02-13T06:18:37.683Z,4.90
2023-02-13T06:23:59.287Z,4.70
2023-02-13T06:29:21.008Z,4.70
2023-02-13T06:34:42.579Z,4.70
2023-02-13T06:40:04.607Z,4.60
2023-02-13T06:45:26.139Z,4.60
2023-02-13T06:50:47.461Z,4.60
2023-02-13T06:56:09.607Z,4.60
2023-02-13T07:01:33.009Z,4.40
2023-02-13T07:06:57.238Z,4.40
2023-02-13T07:12:18.452Z,4.50
2023-02-13T07:17:40.061Z,4.40
2023-02-13T07:23:02.629Z,4.50
2023-02-13T07:28:23.902Z,4.50
2023-02-13T07:33:48.369Z,4.40
2023-02-13T07:39:09.863Z,4.30
2023-02-13T07:44:31.876Z,4.30
2023-02-13T07:49:55.012Z,4.30
2023-02-13T07:55:16.499Z,4.30
2023-02-13T08:00:38.010Z,4.00
2023-02-13T08:05:59.719Z,4.30
2023-02-13T08:11:50.328Z,4.40
2023-02-13T08:17:11.847Z,4.50
2023-02-13T08:22:33.442Z,4.60
2023-02-13T08:27:54.645Z,4.60
2023-02-13T08:33:16.262Z,4.60
2023-02-13T08:38:37.797Z,4.70
2023-02-13T08:43:59.072Z,4.80
2023-02-13T08:49:20.819Z,4.80
2023-02-13T08:54:42.322Z,4.90
2023-02-13T09:00:04.742Z,4.80
2023-02-13T09:05:26.076Z,4.90
2023-02-13T09:10:47.478Z,4.80
2023-02-13T09:16:10.673Z,4.90
2023-02-13T09:21:32.301Z,4.80
2023-02-13T09:26:53.936Z,4.90
2023-02-13T09:32:17.201Z,4.90
2023-02-13T09:37:38.786Z,5.10
2023-02-13T09:43:29.759Z,5.20
2023-02-13T09:48:54.685Z,5.20
2023-02-13T09:54:19.365Z,5.30
2023-02-13T09:59:50.286Z,5.50
2023-02-13T10:05:32.140Z,5.20
2023-02-13T10:11:20.837Z,5.20
2023-02-13T10:16:51.032Z,5.50
2023-02-13T10:22:17.328Z,5.40
2023-02-13T10:27:50.061Z,5.40
2023-02-13T10:33:20.392Z,5.60
2023-02-13T10:39:19.115Z,5.60
2023-02-13T10:44:43.771Z,5.60
2023-02-13T10:50:26.993Z,5.70
2023-02-13T10:55:54.546Z,5.70
2023-02-13T11:01:36.272Z,5.70
2023-02-13T11:07:00.738Z,5.80
2023-02-13T11:12:32.564Z,5.70
2023-02-13T11:17:57.888Z,6.00
2023-02-13T11:23:31.349Z,6.00
2023-02-13T11:28:57.069Z,5.90
2023-02-13T11:34:29.904Z,6.30
2023-02-13T11:39:54.417Z,6.50
2023-02-13T11:45:25.527Z,6.80
2023-02-13T11:50:56.261Z,7.00
2023-02-13T11:56:17.943Z,7.10
2023-02-13T12:01:39.403Z,7.30
2023-02-13T12:07:24.723Z,7.50
2023-02-13T12:13:14.374Z,7.80
2023-02-13T12:18:46.781Z,7.70
2023-02-13T12:24:26.325Z,7.80
2023-02-13T12:29:56.708Z,8.00
2023-02-13T12:35:23.985Z,7.90
2023-02-13T12:41:05.654Z,7.70
2023-02-13T12:46:54.912Z,7.50
2023-02-13T12:52:22.342Z,7.20
2023-02-13T12:58:04.759Z,7.20
2023-02-13T13:03:33.421Z,7.00
2023-02-13T13:09:18.832Z,7.10
2023-02-13T13:15:33.339Z,6.60
2023-02-13T13:20:58.764Z,5.90
2023-02-13T13:26:32.171Z,6.00
2023-02-13T13:31:59.960Z,5.90
2023-02-13T13:37:41.250Z,5.90
2023-02-13T13:43:23.160Z,5.80
2023-02-13T13:48:59.687Z,5.60
2023-02-13T13:54:24.751Z,5.50
2023-02-13T13:59:51.783Z,5.40
2023-02-13T14:05:34.101Z,5.40
2023-02-13T14:11:01.021Z,5.50
2023-02-13T14:16:45.313Z,5.50
2023-02-13T14:22:28.176Z,5.50
2023-02-13T14:28:04.563Z,5.40
2023-02-13T14:33:31.288Z,5.20
2023-02-13T14:39:07.454Z,5.30
2023-02-13T14:44:49.561Z,5.40
2023-02-13T14:50:23.668Z,5.40
2023-02-13T14:55:48.570Z,5.50
2023-02-13T15:01:31.398Z,5.50
2023-02-13T15:06:55.886Z,5.60
2023-02-13T15:12:32.031Z,5.60
2023-02-13T15:18:11.898Z,5.60
2023-02-13T15:23:34.868Z,5.20
2023-02-13T15:29:17.453Z,5.40
2023-02-13T15:34:50.106Z,5.40
2023-02-13T15:40:33.286Z,5.30
2023-02-13T15:45:57.402Z,5.30
2023-02-13T15:51:30.779Z,5.30
2023-02-13T15:56:53.832Z,5.30
2023-02-13T16:02:25.728Z,5.20
2023-02-13T16:07:51.561Z,5.20
2023-02-13T16:13:18.812Z,5.10
2023-02-13T16:18:44.239Z,5.00
2023-02-13T16:24:07.573Z,5.10
2023-02-13T16:29:29.189Z,5.10
2023-02-13T16:34:52.375Z,5.10
2023-02-13T16:40:38.533Z,5.00
2023-02-13T16:46:11.539Z,5.10
2023-02-13T16:51:51.162Z,5.20
2023-02-13T16:57:17.600Z,5.20
2023-02-13T17:02:50.735Z,5.20
2023-02-13T17:08:12.113Z,5.30
2023-02-13T17:13:34.377Z,5.30
2023-02-13T17:18:55.719Z,5.20
2023-02-13T17:24:18.834Z,5.30
2023-02-13T17:29:40.402Z,5.30
2023-02-13T17:35:01.858Z,5.30
2023-02-13T17:40:26.187Z,5.30
2023-02-13T17:45:48.070Z,5.20
2023-02-13T17:51:14.063Z,5.20
2023-02-13T17:56:35.481Z,5.30
2023-02-13T18:01:57.252Z,5.20
2023-02-13T18:07:21.026Z,5.10
2023-02-13T18:12:43.334Z,4.90
2023-02-13T18:18:05.068Z,4.90
2023-02-13T18:23:26.601Z,4.80
2023-02-13T18:28:52.290Z,4.90
2023-02-13T18:34:13.923Z,4.80
2023-02-13T18:39:35.832Z,4.80
2023-02-13T18:44:57.212Z,4.90
2023-02-13T18:50:18.706Z,4.60
2023-02-13T18:55:40.686Z,4.40
2023-02-13T19:01:11.685Z,4.50
2023-02-13T19:06:33.757Z,4.50
2023-02-13T19:11:55.047Z,4.40
2023-02-13T19:17:16.531Z,4.60
2023-02-13T19:22:38.225Z,4.70
2023-02-13T19:27:59.703Z,4.70
2023-02-13T19:33:21.189Z,4.70
2023-02-13T19:38:46.694Z,4.70
2023-02-13T19:44:08.874Z,4.80
2023-02-13T19:49:30.571Z,4.70
2023-02-13T19:54:53.828Z,4.70
2023-02-13T20:00:15.934Z,4.70
2023-02-13T20:05:41.041Z,4.70
2023-02-13T20:11:02.794Z,4.70
2023-02-13T20:16:24.880Z,4.70
2023-02-13T20:21:46.567Z,4.80
2023-02-13T20:27:10.431Z,4.90
2023-02-13T20:32:31.765Z,4.70
2023-02-13T20:37:53.042Z,4.70
2023-02-13T20:43:14.246Z,4.70
2023-02-13T20:48:37.133Z,4.80
2023-02-13T20:54:00.443Z,4.60
2023-02-13T20:59:21.766Z,4.70
2023-02-13T21:04:43.071Z,4.60
2023-02-13T21:10:05.843Z,4.60
2023-02-13T21:15:29.244Z,4.60
2023-02-13T21:20:50.750Z,4.60
2023-02-13T21:26:15.953Z,4.70
2023-02-13T21:31:51.241Z,4.70
2023-02-13T21:37:12.420Z,4.70
2023-02-13T21:42:33.979Z,4.70
2023-02-13T21:47:56.709Z,4.70
2023-02-13T21:53:18.215Z,4.70
2023-02-13T21:58:41.705Z,4.80
2023-02-13T22:04:06.643Z,4.80
2023-02-13T22:09:28.156Z,4.70
2023-02-13T22:14:54.401Z,4.80
2023-02-13T22:20:15.888Z,4.70
2023-02-13T22:25:37.469Z,4.70
2023-02-13T22:30:59.830Z,4.70
2023-02-13T22:36:22.404Z,4.70
2023-02-13T22:41:45.841Z,4.70
2023-02-13T22:47:07.683Z,4.70
2023-02-13T22:52:29.163Z,4.70
2023-02-13T22:57:54.382Z,4.70
2023-02-13T23:03:15.795Z,4.60
2023-02-13T23:08:38.362Z,4.60
2023-02-13T23:14:00.491Z,4.60
2023-02-13T23:19:22.843Z,4.60
2023-02-13T23:24:44.441Z,4.40
2023-02-13T23:30:07.576Z,4.40
2023-02-13T23:35:29.275Z,4.40
2023-02-13T23:40:50.858Z,4.40
2023-02-13T23:46:12.419Z,4.30
2023-02-13T23:51:33.563Z,4.20
2023-02-13T23:56:56.278Z,4.20
